Aviation Digital Data Service (ADDS)

Output produced by TAFs form (2006 UTC 24 November 2014)
found at http://aviationweather.gov/adds/tafs/
 
KDRO 241726Z 2418/2518 VRB03KT P6SM FEW080 SCT200 
     FM241900 27020G30KT P6SM FEW080 SCT200 
     FM242300 29012G22KT P6SM FEW200 
     FM250200 33010G20KT P6SM SKC 
     FM250500 03003KT P6SM SKC 
     FM251700 VRB03KT P6SM SCT070